createdAt,value
2023-05-18T00:01:16.342Z,4.24
2023-05-18T00:03:43.092Z,4.17
2023-05-18T00:06:09.953Z,4.34
2023-05-18T00:08:37.084Z,4.20
2023-05-18T00:11:03.927Z,4.41
2023-05-18T00:13:30.589Z,4.32
2023-05-18T00:15:57.198Z,4.21
2023-05-18T00:18:24.823Z,4.23
2023-05-18T00:20:51.426Z,4.22
2023-05-18T00:23:17.956Z,4.30
2023-05-18T00:25:44.478Z,4.40
2023-05-18T00:28:12.667Z,4.22
2023-05-18T00:30:39.642Z,4.35
2023-05-18T00:33:06.202Z,4.45
2023-05-18T00:35:32.867Z,4.55
2023-05-18T00:37:59.432Z,4.35
2023-05-18T00:40:26.556Z,4.18
2023-05-18T00:42:53.129Z,4.22
2023-05-18T00:45:19.655Z,4.15
2023-05-18T00:47:47.253Z,4.19
2023-05-18T00:50:13.838Z,4.22
2023-05-18T00:52:40.602Z,4.12
2023-05-18T00:55:07.446Z,4.12
2023-05-18T00:57:34.181Z,4.17
2023-05-18T01:00:00.831Z,4.04
2023-05-18T01:02:30.462Z,4.11
2023-05-18T01:04:57.475Z,3.94
2023-05-18T01:07:26.501Z,3.88
2023-05-18T01:09:53.977Z,3.95
2023-05-18T01:12:36.131Z,4.00
2023-05-18T01:15:09.204Z,3.92
2023-05-18T01:17:44.589Z,4.10
2023-05-18T01:20:38.936Z,4.16
2023-05-18T01:23:29.697Z,4.00
2023-05-18T01:25:56.283Z,4.11
2023-05-18T01:28:28.525Z,4.18
2023-05-18T01:30:55.121Z,4.12
2023-05-18T01:33:21.644Z,4.18
2023-05-18T01:35:48.747Z,4.12
2023-05-18T01:38:20.715Z,4.07
2023-05-18T01:40:57.705Z,3.79
2023-05-18T01:43:28.156Z,3.98
2023-05-18T01:45:56.430Z,4.01
2023-05-18T01:48:24.180Z,3.89
2023-05-18T01:50:50.887Z,3.95
2023-05-18T01:53:23.936Z,3.76
2023-05-18T01:55:50.701Z,3.88
2023-05-18T01:58:17.258Z,3.79
2023-05-18T02:00:45.379Z,3.69
2023-05-18T02:03:13.144Z,3.76
2023-05-18T02:05:39.815Z,3.78
2023-05-18T02:08:06.442Z,3.62
2023-05-18T02:10:33.292Z,3.45
2023-05-18T02:12:59.830Z,3.33
2023-05-18T02:15:26.396Z,3.52
2023-05-18T02:17:58.116Z,3.54
2023-05-18T02:20:24.861Z,3.56
2023-05-18T02:22:51.394Z,3.64
2023-05-18T02:25:17.923Z,3.76
2023-05-18T02:27:44.560Z,3.61
2023-05-18T02:30:13.801Z,3.66
2023-05-18T02:32:42.802Z,3.75
2023-05-18T02:35:10.211Z,3.78
2023-05-18T02:37:40.073Z,3.69
2023-05-18T02:40:10.745Z,3.49
2023-05-18T02:42:37.241Z,3.50
2023-05-18T02:45:03.888Z,3.54
2023-05-18T02:47:30.589Z,3.56
2023-05-18T02:49:57.167Z,3.57
2023-05-18T02:52:23.723Z,3.43
2023-05-18T02:54:50.252Z,3.51
2023-05-18T02:57:18.670Z,3.25
2023-05-18T02:59:45.172Z,3.26
2023-05-18T03:02:14.408Z,3.04
2023-05-18T03:04:41.833Z,2.90
2023-05-18T03:07:08.397Z,3.16
2023-05-18T03:09:34.932Z,3.25
2023-05-18T03:12:01.501Z,3.17
2023-05-18T03:14:28.049Z,3.06
2023-05-18T03:16:57.986Z,3.11
2023-05-18T03:19:24.899Z,3.19
2023-05-18T03:21:51.823Z,3.18
2023-05-18T03:24:18.345Z,3.24
2023-05-18T03:26:44.929Z,3.21
2023-05-18T03:29:13.440Z,3.09
2023-05-18T03:31:40.586Z,3.14
2023-05-18T03:34:07.230Z,3.20
2023-05-18T03:36:35.556Z,3.16
2023-05-18T03:39:02.289Z,3.18
2023-05-18T03:41:29.893Z,3.02
2023-05-18T03:43:56.512Z,3.22
2023-05-18T03:46:23.151Z,3.26
2023-05-18T03:48:49.696Z,3.23
2023-05-18T03:51:16.214Z,3.23
2023-05-18T03:53:42.723Z,3.36
2023-05-18T03:56:09.240Z,3.23
2023-05-18T03:58:35.740Z,3.39
2023-05-18T04:01:02.459Z,3.64
2023-05-18T04:03:30.579Z,3.65
2023-05-18T04:05:57.289Z,3.98
2023-05-18T04:08:25.548Z,4.04
2023-05-18T04:10:52.473Z,4.26
2023-05-18T04:13:19.080Z,4.29
2023-05-18T04:15:45.864Z,4.60
2023-05-18T04:18:13.667Z,4.74
2023-05-18T04:20:41.625Z,5.06
2023-05-18T04:23:10.045Z,5.30
2023-05-18T04:25:36.736Z,5.58
2023-05-18T04:28:03.241Z,5.77
2023-05-18T04:30:30.316Z,5.94
2023-05-18T04:32:58.392Z,6.00
2023-05-18T04:35:25.988Z,6.14
2023-05-18T04:37:52.556Z,6.25
2023-05-18T04:40:19.092Z,6.48
2023-05-18T04:42:47.727Z,6.65
2023-05-18T04:45:15.904Z,6.81
2023-05-18T04:47:43.008Z,6.68
2023-05-18T04:50:09.833Z,6.86
2023-05-18T04:52:36.880Z,6.88
2023-05-18T04:55:03.750Z,7.08
2023-05-18T04:57:30.994Z,7.44
2023-05-18T04:59:58.307Z,7.60
2023-05-18T05:02:24.911Z,7.62
2023-05-18T05:04:51.506Z,7.40
2023-05-18T05:07:18.011Z,7.61
2023-05-18T05:09:44.530Z,7.65
2023-05-18T05:12:11.117Z,7.64
2023-05-18T05:14:37.646Z,7.80
2023-05-18T05:17:04.187Z,7.50
2023-05-18T05:19:30.837Z,7.59
2023-05-18T05:21:57.408Z,7.85
2023-05-18T05:24:23.924Z,7.88
2023-05-18T05:26:50.443Z,7.76
2023-05-18T05:29:16.981Z,7.84
2023-05-18T05:31:43.563Z,7.58
2023-05-18T05:34:11.932Z,7.86
2023-05-18T05:36:39.306Z,7.73
2023-05-18T05:39:05.813Z,7.79
2023-05-18T05:41:32.646Z,8.12
2023-05-18T05:43:59.164Z,8.17
2023-05-18T05:46:25.904Z,8.36
2023-05-18T05:48:52.485Z,8.72
2023-05-18T05:51:18.999Z,8.92
2023-05-18T05:53:47.543Z,8.90
2023-05-18T05:56:14.146Z,8.38
2023-05-18T05:58:42.266Z,8.30
2023-05-18T06:01:09.224Z,8.24
2023-05-18T06:03:36.338Z,8.55
2023-05-18T06:06:02.950Z,8.61
2023-05-18T06:08:29.497Z,8.92
2023-05-18T06:10:56.011Z,9.21
2023-05-18T06:13:22.553Z,9.12
2023-05-18T06:15:49.062Z,9.31
2023-05-18T06:18:15.708Z,9.27
2023-05-18T06:20:42.267Z,9.29
2023-05-18T06:23:08.782Z,9.18
2023-05-18T06:25:35.397Z,9.15
2023-05-18T06:28:01.962Z,9.26
2023-05-18T06:30:28.496Z,9.06
2023-05-18T06:32:55.046Z,9.30
2023-05-18T06:35:21.820Z,9.06
2023-05-18T06:37:48.347Z,9.25
2023-05-18T06:40:14.865Z,9.57
2023-05-18T06:42:41.388Z,9.59
2023-05-18T06:45:08.156Z,9.11
2023-05-18T06:47:34.775Z,9.52
2023-05-18T06:50:01.421Z,9.59
2023-05-18T06:52:28.547Z,9.67
2023-05-18T06:54:55.083Z,9.79
2023-05-18T06:57:21.719Z,9.18
2023-05-18T06:59:53.506Z,9.40
2023-05-18T07:02:21.209Z,9.31
2023-05-18T07:04:48.057Z,9.49
2023-05-18T07:07:15.042Z,9.65
2023-05-18T07:09:43.219Z,9.82
2023-05-18T07:12:09.748Z,10.12
2023-05-18T07:14:36.633Z,9.98
2023-05-18T07:17:04.040Z,10.37
2023-05-18T07:19:30.851Z,10.47
2023-05-18T07:21:59.324Z,10.97
2023-05-18T07:24:25.834Z,10.71
2023-05-18T07:26:52.423Z,10.68
2023-05-18T07:29:18.954Z,11.07
2023-05-18T07:31:45.700Z,11.53
2023-05-18T07:34:12.506Z,11.78
2023-05-18T07:36:39.010Z,11.57
2023-05-18T07:39:05.552Z,11.79
2023-05-18T07:41:32.105Z,11.14
2023-05-18T07:43:58.667Z,11.58
2023-05-18T07:46:25.231Z,11.76
2023-05-18T07:48:51.765Z,11.51
2023-05-18T07:51:18.332Z,10.97
2023-05-18T07:53:46.005Z,10.81
2023-05-18T07:56:12.575Z,11.29
2023-05-18T07:58:40.594Z,11.67
2023-05-18T08:01:07.113Z,10.83
2023-05-18T08:03:33.801Z,11.20
2023-05-18T08:06:00.766Z,11.64
2023-05-18T08:08:27.350Z,11.15
2023-05-18T08:10:53.868Z,11.70
2023-05-18T08:13:20.434Z,12.11
2023-05-18T08:15:53.238Z,12.31
2023-05-18T08:18:26.289Z,12.28
2023-05-18T08:20:53.956Z,11.74
2023-05-18T08:23:20.491Z,12.20
2023-05-18T08:25:47.040Z,11.70
2023-05-18T08:28:13.539Z,11.50
2023-05-18T08:30:40.061Z,12.13
2023-05-18T08:33:06.641Z,12.73
2023-05-18T08:35:33.580Z,12.45
2023-05-18T08:38:00.500Z,12.27
2023-05-18T08:40:32.664Z,12.09
2023-05-18T08:43:12.109Z,12.45
2023-05-18T08:45:47.105Z,12.99
2023-05-18T08:48:13.697Z,13.34
2023-05-18T08:50:41.740Z,13.20
2023-05-18T08:53:08.249Z,13.10
2023-05-18T08:55:36.855Z,13.31
2023-05-18T08:58:04.291Z,13.98
2023-05-18T09:00:30.936Z,13.94
2023-05-18T09:02:57.696Z,14.10
2023-05-18T09:05:24.311Z,14.04
2023-05-18T09:07:51.345Z,13.24
2023-05-18T09:10:18.068Z,12.82
2023-05-18T09:12:46.804Z,13.11
2023-05-18T09:15:15.187Z,13.17
2023-05-18T09:17:41.782Z,13.76
2023-05-18T09:20:08.788Z,13.64
2023-05-18T09:22:41.211Z,14.18
2023-05-18T09:25:11.009Z,14.19
2023-05-18T09:27:37.972Z,13.69
2023-05-18T09:30:05.217Z,13.85
2023-05-18T09:32:34.469Z,13.93
2023-05-18T09:35:04.596Z,14.16
2023-05-18T09:37:31.335Z,14.74
2023-05-18T09:40:02.145Z,14.24
2023-05-18T09:42:49.716Z,14.19
2023-05-18T09:45:18.112Z,14.19
2023-05-18T09:47:44.760Z,14.89
2023-05-18T09:50:11.483Z,15.47
2023-05-18T09:52:44.834Z,15.11
2023-05-18T09:55:11.832Z,15.24
2023-05-18T09:57:45.875Z,15.01
2023-05-18T10:00:13.378Z,14.27
2023-05-18T10:02:41.316Z,15.05
2023-05-18T10:05:27.482Z,14.73
2023-05-18T10:07:54.586Z,14.95
2023-05-18T10:10:22.524Z,15.16
2023-05-18T10:12:52.300Z,14.64
2023-05-18T10:15:20.818Z,14.40
2023-05-18T10:17:48.083Z,14.43
2023-05-18T10:20:17.431Z,14.82
2023-05-18T10:22:45.346Z,14.77
2023-05-18T10:25:11.897Z,14.71
2023-05-18T10:27:38.520Z,14.33
2023-05-18T10:30:08.057Z,14.18
2023-05-18T10:32:36.045Z,14.86
2023-05-18T10:35:03.819Z,15.99
2023-05-18T10:37:30.880Z,15.67
2023-05-18T10:39:58.472Z,14.78
2023-05-18T10:42:25.766Z,13.95
2023-05-18T10:44:53.156Z,13.39
2023-05-18T10:47:20.139Z,14.39
2023-05-18T10:49:48.248Z,14.96
2023-05-18T10:52:14.764Z,15.09
2023-05-18T10:54:41.278Z,15.51
2023-05-18T10:57:07.800Z,15.76
2023-05-18T10:59:34.325Z,15.66
2023-05-18T11:02:01.072Z,14.65
2023-05-18T11:04:29.580Z,14.07
2023-05-18T11:06:59.574Z,14.18
2023-05-18T11:09:26.588Z,13.93
2023-05-18T11:11:59.991Z,13.86
2023-05-18T11:14:27.578Z,14.53
2023-05-18T11:16:54.380Z,15.14
2023-05-18T11:19:25.047Z,15.59
2023-05-18T11:21:52.027Z,16.19
2023-05-18T11:24:19.323Z,16.28
2023-05-18T11:27:15.139Z,15.61
2023-05-18T11:29:45.013Z,15.95
2023-05-18T11:32:30.506Z,15.49
2023-05-18T11:34:57.697Z,15.87
2023-05-18T11:37:39.326Z,16.15
2023-05-18T11:40:09.271Z,16.01
2023-05-18T11:42:37.555Z,16.31
2023-05-18T11:45:08.140Z,15.75
2023-05-18T11:47:36.341Z,15.45
2023-05-18T11:50:02.989Z,15.74
2023-05-18T11:52:29.551Z,15.35
2023-05-18T11:54:56.978Z,16.66
2023-05-18T11:57:27.591Z,16.45
2023-05-18T11:59:57.815Z,17.03
2023-05-18T12:02:24.735Z,16.89
2023-05-18T12:04:53.335Z,17.99
2023-05-18T12:07:20.063Z,17.91
2023-05-18T12:09:47.111Z,16.34
2023-05-18T12:12:19.720Z,16.08
2023-05-18T12:14:57.363Z,15.90
2023-05-18T12:17:24.665Z,15.84
2023-05-18T12:19:51.297Z,16.45
2023-05-18T12:22:17.890Z,16.79
2023-05-18T12:24:44.533Z,17.39
2023-05-18T12:27:12.054Z,18.49
2023-05-18T12:29:40.157Z,18.47
2023-05-18T12:32:08.272Z,18.55
2023-05-18T12:34:34.857Z,16.42
2023-05-18T12:37:01.421Z,15.39
2023-05-18T12:39:28.939Z,16.33
2023-05-18T12:42:15.103Z,17.58
2023-05-18T12:44:43.891Z,17.91
2023-05-18T12:47:11.899Z,17.96
2023-05-18T12:49:48.095Z,17.96
2023-05-18T12:52:15.529Z,18.49
2023-05-18T12:54:58.424Z,17.57
2023-05-18T12:57:27.848Z,17.84
2023-05-18T12:59:54.421Z,17.00
2023-05-18T13:02:36.917Z,17.41
2023-05-18T13:05:04.822Z,18.14
2023-05-18T13:07:31.659Z,18.56
2023-05-18T13:10:02.391Z,18.66
2023-05-18T13:12:48.288Z,18.71
2023-05-18T13:15:21.733Z,18.57
2023-05-18T13:18:02.745Z,18.49
2023-05-18T13:20:51.049Z,17.58
2023-05-18T13:23:19.116Z,18.39
2023-05-18T13:25:46.761Z,19.13
2023-05-18T13:28:14.209Z,19.68
2023-05-18T13:30:42.062Z,19.42
2023-05-18T13:33:08.790Z,18.94
2023-05-18T13:35:38.965Z,18.39
2023-05-18T13:38:05.349Z,18.89
2023-05-18T13:40:31.965Z,18.53
2023-05-18T13:42:58.663Z,18.75
2023-05-18T13:45:25.198Z,17.66
2023-05-18T13:47:53.422Z,17.47
2023-05-18T13:50:20.508Z,18.47
2023-05-18T13:52:49.951Z,18.69
2023-05-18T13:55:16.476Z,17.59
2023-05-18T13:57:43.012Z,16.99
2023-05-18T14:00:11.277Z,17.39
2023-05-18T14:02:37.867Z,17.21
2023-05-18T14:05:05.182Z,17.46
2023-05-18T14:07:31.701Z,17.77
2023-05-18T14:09:58.212Z,17.62
2023-05-18T14:12:24.770Z,18.33
2023-05-18T14:14:51.537Z,18.93
2023-05-18T14:17:18.145Z,19.56
2023-05-18T14:19:44.689Z,20.12
2023-05-18T14:22:11.413Z,20.01
2023-05-18T14:24:37.981Z,19.25
2023-05-18T14:27:04.535Z,18.56
2023-05-18T14:29:33.456Z,18.20
2023-05-18T14:32:01.752Z,18.03
2023-05-18T14:34:28.341Z,18.34
2023-05-18T14:36:54.882Z,18.31
2023-05-18T14:39:21.422Z,18.55
2023-05-18T14:41:47.925Z,18.37
2023-05-18T14:44:14.524Z,18.11
2023-05-18T14:46:41.320Z,17.92
2023-05-18T14:49:07.908Z,18.11
2023-05-18T14:51:34.472Z,17.88
2023-05-18T14:54:00.992Z,17.48
2023-05-18T14:56:27.561Z,18.09
2023-05-18T14:58:54.090Z,18.44
2023-05-18T15:01:20.755Z,18.41
2023-05-18T15:03:47.427Z,17.98
2023-05-18T15:06:14.055Z,17.93
2023-05-18T15:08:40.733Z,17.53
2023-05-18T15:11:07.269Z,16.93
2023-05-18T15:13:33.808Z,16.53
2023-05-18T15:16:00.660Z,16.66
2023-05-18T15:18:27.312Z,16.22
2023-05-18T15:20:53.859Z,16.20
2023-05-18T15:23:20.626Z,15.69
2023-05-18T15:25:47.171Z,15.52
2023-05-18T15:28:13.765Z,15.53
2023-05-18T15:30:40.475Z,15.20
2023-05-18T15:33:07.079Z,15.11
2023-05-18T15:35:34.882Z,14.81
2023-05-18T15:38:01.405Z,15.19
2023-05-18T15:40:27.954Z,14.98
2023-05-18T15:42:54.638Z,15.30
2023-05-18T15:45:21.158Z,15.78
2023-05-18T15:47:47.690Z,16.10
2023-05-18T15:50:14.335Z,16.04
2023-05-18T15:52:41.906Z,15.66
2023-05-18T15:55:08.790Z,15.37
2023-05-18T15:57:35.386Z,15.15
2023-05-18T16:00:02.117Z,15.18
2023-05-18T16:02:28.764Z,14.96
2023-05-18T16:04:55.390Z,14.88
2023-05-18T16:07:21.934Z,14.81
2023-05-18T16:09:48.598Z,14.77
2023-05-18T16:12:15.168Z,14.79
2023-05-18T16:14:41.737Z,14.90
2023-05-18T16:17:08.464Z,14.77
2023-05-18T16:19:35.757Z,14.79
2023-05-18T16:22:02.269Z,14.90
2023-05-18T16:24:28.795Z,14.14
2023-05-18T16:26:55.402Z,14.19
2023-05-18T16:29:21.899Z,14.18
2023-05-18T16:31:48.618Z,14.20
2023-05-18T16:34:15.228Z,14.26
2023-05-18T16:36:41.734Z,14.30
2023-05-18T16:39:08.257Z,14.25
2023-05-18T16:41:34.800Z,14.18
2023-05-18T16:44:01.346Z,14.24
2023-05-18T16:46:28.442Z,14.29
2023-05-18T16:48:55.068Z,14.40
2023-05-18T16:51:21.584Z,14.45
2023-05-18T16:53:48.204Z,14.37
2023-05-18T16:56:14.700Z,14.29
2023-05-18T16:58:41.225Z,13.94
2023-05-18T17:01:19.377Z,13.86
2023-05-18T17:03:53.275Z,13.70
2023-05-18T17:06:21.161Z,13.84
2023-05-18T17:08:47.777Z,13.79
2023-05-18T17:11:14.612Z,13.68
2023-05-18T17:13:41.186Z,13.73
2023-05-18T17:16:07.740Z,13.64
2023-05-18T17:18:34.316Z,13.67
2023-05-18T17:21:00.837Z,13.75
2023-05-18T17:23:27.376Z,13.70
2023-05-18T17:26:00.965Z,13.64
2023-05-18T17:28:32.247Z,13.50
2023-05-18T17:30:58.796Z,13.40
2023-05-18T17:33:25.593Z,13.42
2023-05-18T17:35:52.153Z,13.34
2023-05-18T17:38:18.750Z,13.21
2023-05-18T17:40:45.273Z,13.30
2023-05-18T17:43:11.783Z,13.25
2023-05-18T17:45:38.321Z,13.21
2023-05-18T17:48:05.181Z,13.24
2023-05-18T17:50:31.863Z,12.95
2023-05-18T17:52:58.659Z,12.94
2023-05-18T17:55:25.212Z,13.00
2023-05-18T17:57:51.752Z,12.84
2023-05-18T18:00:18.639Z,12.88
2023-05-18T18:02:45.245Z,12.88
2023-05-18T18:05:11.944Z,12.91
2023-05-18T18:07:39.173Z,12.89
2023-05-18T18:10:07.000Z,12.82
2023-05-18T18:12:33.514Z,12.87
2023-05-18T18:15:00.046Z,12.74
2023-05-18T18:17:26.705Z,12.76
2023-05-18T18:19:53.246Z,12.71
2023-05-18T18:22:19.796Z,12.54
2023-05-18T18:24:46.297Z,12.54
2023-05-18T18:27:13.120Z,12.38
2023-05-18T18:29:39.660Z,12.40
2023-05-18T18:32:06.343Z,12.42
2023-05-18T18:34:32.857Z,12.40
2023-05-18T18:36:59.687Z,12.34
2023-05-18T18:39:26.199Z,12.26
2023-05-18T18:41:52.752Z,12.07
2023-05-18T18:44:19.269Z,12.12
2023-05-18T18:46:46.627Z,12.02
2023-05-18T18:49:13.428Z,11.77
2023-05-18T18:51:40.040Z,11.89
2023-05-18T18:54:06.540Z,11.63
2023-05-18T18:56:33.057Z,11.45
2023-05-18T18:58:59.555Z,11.49
2023-05-18T19:01:26.215Z,11.40
2023-05-18T19:03:52.832Z,11.34
2023-05-18T19:06:20.209Z,11.23
2023-05-18T19:08:46.719Z,11.06
2023-05-18T19:11:13.314Z,11.01
2023-05-18T19:13:39.865Z,10.71
2023-05-18T19:16:06.695Z,10.69
2023-05-18T19:18:33.289Z,10.68
2023-05-18T19:21:01.287Z,10.52
2023-05-18T19:23:27.881Z,10.38
2023-05-18T19:25:54.798Z,10.07
2023-05-18T19:28:21.650Z,9.88
2023-05-18T19:30:48.176Z,9.92
2023-05-18T19:33:14.761Z,9.77
2023-05-18T19:35:41.365Z,9.85
2023-05-18T19:38:07.939Z,9.62
2023-05-18T19:40:34.441Z,9.65
2023-05-18T19:43:01.594Z,9.70
2023-05-18T19:45:28.166Z,9.87
2023-05-18T19:47:56.897Z,9.75
2023-05-18T19:50:23.748Z,9.60
2023-05-18T19:52:50.353Z,9.61
2023-05-18T19:55:17.171Z,9.46
2023-05-18T19:57:43.712Z,9.38
2023-05-18T20:00:11.092Z,9.35
2023-05-18T20:02:37.847Z,9.25
2023-05-18T20:05:06.721Z,9.38
2023-05-18T20:07:33.852Z,9.02
2023-05-18T20:10:00.395Z,9.18
2023-05-18T20:12:28.327Z,9.10
2023-05-18T20:14:54.880Z,9.12
2023-05-18T20:17:21.596Z,9.12
2023-05-18T20:19:51.095Z,9.12
2023-05-18T20:22:17.915Z,9.36
2023-05-18T20:24:44.685Z,9.38
2023-05-18T20:27:12.849Z,9.13
2023-05-18T20:29:39.406Z,9.15
2023-05-18T20:32:06.401Z,9.12
2023-05-18T20:34:32.915Z,9.29
2023-05-18T20:36:59.418Z,9.26
2023-05-18T20:39:26.180Z,9.11
2023-05-18T20:41:53.573Z,9.03
2023-05-18T20:44:22.928Z,8.92
2023-05-18T20:46:49.807Z,8.93
2023-05-18T20:49:16.325Z,8.74
2023-05-18T20:51:42.836Z,8.74
2023-05-18T20:54:09.349Z,8.88
2023-05-18T20:56:35.927Z,8.81
2023-05-18T20:59:03.609Z,8.91
2023-05-18T21:01:38.936Z,9.00
2023-05-18T21:04:05.901Z,8.65
2023-05-18T21:06:32.513Z,8.55
2023-05-18T21:08:59.033Z,8.68
2023-05-18T21:11:26.380Z,8.66
2023-05-18T21:13:52.875Z,8.59
2023-05-18T21:16:19.470Z,8.65
2023-05-18T21:18:46.399Z,8.51
2023-05-18T21:21:12.936Z,8.49
2023-05-18T21:23:39.456Z,8.45
2023-05-18T21:26:06.021Z,8.66
2023-05-18T21:28:32.525Z,8.51
2023-05-18T21:30:59.109Z,8.69
2023-05-18T21:33:25.651Z,8.54
2023-05-18T21:35:52.196Z,8.73
2023-05-18T21:38:18.730Z,8.50
2023-05-18T21:40:46.610Z,8.53
2023-05-18T21:43:13.343Z,8.56
2023-05-18T21:45:39.917Z,8.54
2023-05-18T21:48:06.648Z,8.31
2023-05-18T21:50:34.906Z,8.26
2023-05-18T21:53:03.132Z,8.14
2023-05-18T21:55:30.965Z,8.27
2023-05-18T21:57:57.501Z,8.41
2023-05-18T22:00:24.027Z,8.42
2023-05-18T22:02:50.608Z,8.46
2023-05-18T22:05:17.776Z,8.26
2023-05-18T22:07:44.340Z,8.08
2023-05-18T22:10:11.282Z,8.08
2023-05-18T22:12:37.912Z,7.96
2023-05-18T22:15:04.737Z,8.08
2023-05-18T22:17:31.377Z,7.87
2023-05-18T22:19:58.018Z,7.97
2023-05-18T22:22:30.168Z,8.10
2023-05-18T22:24:57.536Z,7.95
2023-05-18T22:27:24.064Z,7.98
2023-05-18T22:29:50.574Z,7.79
2023-05-18T22:32:17.935Z,7.74
2023-05-18T22:34:44.538Z,7.89
2023-05-18T22:37:11.047Z,8.11
2023-05-18T22:39:37.561Z,8.16
2023-05-18T22:42:04.178Z,8.18
2023-05-18T22:44:31.245Z,8.20
2023-05-18T22:46:57.793Z,7.99
2023-05-18T22:49:24.411Z,8.15
2023-05-18T22:51:53.178Z,7.97
2023-05-18T22:54:19.716Z,8.12
2023-05-18T22:56:46.267Z,7.95
2023-05-18T22:59:12.804Z,7.70
2023-05-18T23:01:39.482Z,7.79
2023-05-18T23:04:06.444Z,7.65
2023-05-18T23:06:32.988Z,7.54
2023-05-18T23:09:00.514Z,7.70
2023-05-18T23:11:28.422Z,7.84
2023-05-18T23:13:55.067Z,7.67
2023-05-18T23:16:22.666Z,7.64
2023-05-18T23:18:50.570Z,7.87
2023-05-18T23:21:17.205Z,7.68
2023-05-18T23:23:46.760Z,7.68
2023-05-18T23:26:13.266Z,7.73
2023-05-18T23:28:39.797Z,7.85
2023-05-18T23:31:06.360Z,7.63
2023-05-18T23:33:33.291Z,7.64
2023-05-18T23:36:00.278Z,7.69
2023-05-18T23:38:28.766Z,7.50
2023-05-18T23:40:55.387Z,7.69
2023-05-18T23:43:22.110Z,7.67
2023-05-18T23:45:48.819Z,7.60
2023-05-18T23:48:15.560Z,7.67
2023-05-18T23:50:42.140Z,7.49
2023-05-18T23:53:08.676Z,7.49
2023-05-18T23:55:36.053Z,7.54
2023-05-18T23:58:02.591Z,7.46
